createdAt,value
2023-02-28T00:00:09.627Z,1.94
2023-02-28T00:01:09.670Z,1.87
2023-02-28T00:02:09.835Z,2.03
2023-02-28T00:03:09.897Z,2.24
2023-02-28T00:04:09.847Z,2.31
2023-02-28T00:05:09.911Z,2.03
2023-02-28T00:06:09.962Z,1.99
2023-02-28T00:07:10.017Z,2.30
2023-02-28T00:08:10.081Z,2.29
2023-02-28T00:09:10.146Z,1.81
2023-02-28T00:10:10.198Z,2.12
2023-02-28T00:11:10.259Z,1.58
2023-02-28T00:12:10.311Z,1.97
2023-02-28T01:53:15.932Z,1.84
2023-02-28T01:54:15.993Z,2.15
2023-02-28T01:55:16.163Z,2.03
2023-02-28T01:56:16.098Z,2.03
2023-02-28T01:57:16.141Z,1.96
2023-02-28T01:58:16.176Z,1.93
2023-02-28T01:59:16.300Z,2.19
2023-02-28T02:00:16.277Z,1.94
2023-02-28T02:01:16.932Z,2.04
2023-02-28T02:02:16.325Z,1.70
2023-02-28T02:03:17.406Z,2.00
2023-02-28T02:04:16.449Z,1.88
2023-02-28T02:05:16.482Z,2.16
2023-02-28T02:06:16.517Z,2.16
2023-02-28T02:07:16.546Z,1.79
2023-02-28T02:08:16.601Z,1.87
2023-02-28T02:09:16.653Z,1.92
2023-02-28T02:10:16.700Z,2.10
2023-02-28T02:11:16.759Z,2.00
2023-02-28T02:12:16.822Z,2.00
2023-02-28T02:13:16.857Z,2.24
2023-02-28T02:14:16.911Z,1.89
2023-02-28T02:15:16.973Z,1.98
2023-02-28T02:43:18.464Z,2.26
2023-02-28T02:44:18.521Z,1.86
2023-02-28T02:45:18.559Z,2.14
2023-02-28T02:46:18.622Z,1.97
2023-02-28T02:47:18.648Z,2.13
2023-02-28T02:48:18.714Z,1.90
2023-02-28T02:49:18.747Z,1.87
2023-02-28T02:50:18.813Z,1.86
2023-02-28T02:51:18.858Z,2.20
2023-02-28T02:52:18.916Z,1.86
2023-02-28T02:53:18.968Z,2.00
2023-02-28T02:54:19.025Z,1.95
2023-02-28T02:55:19.050Z,2.27
2023-02-28T02:56:19.110Z,2.28
2023-02-28T02:57:19.236Z,2.00
2023-02-28T02:58:19.235Z,1.87
2023-02-28T02:59:19.274Z,1.77
2023-02-28T03:00:19.321Z,2.03
2023-02-28T03:01:19.395Z,2.05
2023-02-28T03:02:19.417Z,2.02
2023-02-28T03:03:19.480Z,2.02
2023-02-28T03:04:19.523Z,2.11
2023-02-28T03:05:19.569Z,1.85
2023-02-28T03:06:19.621Z,1.86
2023-02-28T03:07:19.665Z,1.89
2023-02-28T03:08:19.723Z,2.10
2023-02-28T03:09:19.774Z,2.04
2023-02-28T03:10:19.830Z,1.92
2023-02-28T03:11:19.876Z,1.84
2023-02-28T03:12:20.001Z,2.12
2023-02-28T03:13:20.421Z,1.53
2023-02-28T03:14:20.025Z,1.76
2023-02-28T03:15:20.088Z,2.04
2023-02-28T03:44:21.552Z,1.96
2023-02-28T03:45:21.588Z,1.97
2023-02-28T03:46:21.633Z,2.02
2023-02-28T03:48:21.747Z,1.78
2023-02-28T03:49:21.810Z,1.83
2023-02-28T03:50:22.435Z,1.99
2023-02-28T03:51:21.869Z,1.60
2023-02-28T03:52:21.930Z,1.84
2023-02-28T03:53:21.999Z,1.97
2023-02-28T03:54:22.053Z,1.88
2023-02-28T03:55:22.095Z,2.07
2023-02-28T03:56:22.153Z,2.44
2023-02-28T03:57:22.294Z,2.01
2023-02-28T03:58:22.280Z,2.12
2023-02-28T03:59:22.320Z,1.96
2023-02-28T04:00:22.410Z,2.14
2023-02-28T04:01:22.490Z,2.12
2023-02-28T04:02:22.501Z,2.11
2023-02-28T04:03:22.553Z,2.12
2023-02-28T04:04:22.638Z,1.95
2023-02-28T04:05:22.663Z,2.27
2023-02-28T04:06:23.447Z,1.72
2023-02-28T04:07:22.779Z,1.78
2023-02-28T04:08:22.833Z,1.92
2023-02-28T04:09:22.891Z,1.93
2023-02-28T04:10:24.012Z,1.90
2023-02-28T04:11:22.996Z,2.12
2023-02-28T04:12:23.041Z,1.67
2023-02-28T04:13:23.098Z,1.95
2023-02-28T04:14:23.146Z,1.95
2023-02-28T04:15:23.201Z,1.79
2023-02-28T04:16:34.420Z,1.61
2023-02-28T04:17:24.229Z,1.62
2023-02-28T04:18:23.218Z,1.72
2023-02-28T04:19:23.214Z,1.59
2023-02-28T04:20:23.205Z,2.04
2023-02-28T04:21:23.218Z,2.07
2023-02-28T04:22:23.268Z,1.59
2023-02-28T04:23:23.185Z,2.12
2023-02-28T04:24:23.181Z,1.59
2023-02-28T04:25:23.176Z,1.90
2023-02-28T04:26:23.168Z,1.80
2023-02-28T04:38:23.354Z,1.71
2023-02-28T04:39:23.383Z,1.90
2023-02-28T04:40:23.424Z,1.85
2023-02-28T04:41:23.436Z,1.74
2023-02-28T04:42:23.462Z,1.84
2023-02-28T04:43:23.488Z,1.91
2023-02-28T04:44:23.959Z,2.07
2023-02-28T04:45:23.531Z,1.91
2023-02-28T04:46:23.557Z,1.95
2023-02-28T04:47:23.592Z,1.91
2023-02-28T04:48:23.585Z,2.20
2023-02-28T04:49:23.617Z,1.87
2023-02-28T04:50:23.627Z,1.86
2023-02-28T04:51:23.657Z,1.54
2023-02-28T04:52:23.672Z,1.91
2023-02-28T04:53:23.687Z,2.16
2023-02-28T04:54:23.714Z,1.66
2023-02-28T04:55:23.728Z,1.99
2023-02-28T04:56:23.748Z,2.05
2023-02-28T04:57:23.767Z,1.87
2023-02-28T04:58:23.792Z,1.94
2023-02-28T04:59:23.813Z,2.09
2023-02-28T05:00:23.829Z,1.99
2023-02-28T05:01:23.847Z,1.80
2023-02-28T05:02:23.915Z,1.77
2023-02-28T05:03:23.896Z,2.03
2023-02-28T05:04:23.926Z,1.81
2023-02-28T05:05:23.933Z,2.04
2023-02-28T05:06:23.945Z,2.08
2023-02-28T05:07:23.978Z,1.88
2023-02-28T05:08:24.034Z,1.81
2023-02-28T05:09:24.013Z,1.94
2023-02-28T05:10:24.032Z,2.03
2023-02-28T05:11:24.052Z,1.94
2023-02-28T05:12:24.085Z,1.50
2023-02-28T05:13:24.098Z,1.55
2023-02-28T05:14:24.123Z,2.02
2023-02-28T05:15:24.135Z,1.87
2023-02-28T05:16:24.239Z,1.77
2023-02-28T05:17:24.177Z,1.84
2023-02-28T05:18:24.193Z,1.94
2023-02-28T05:19:24.221Z,1.76
2023-02-28T05:20:24.235Z,1.79
2023-02-28T05:21:24.254Z,1.88
2023-02-28T05:22:24.303Z,2.36
2023-02-28T05:23:24.293Z,1.67
2023-02-28T05:24:24.324Z,1.90
2023-02-28T05:25:24.339Z,1.67
2023-02-28T05:26:24.982Z,1.80
2023-02-28T05:27:24.372Z,1.97
2023-02-28T05:28:24.475Z,1.72
2023-02-28T05:29:24.470Z,2.05
2023-02-28T05:30:24.465Z,1.80
2023-02-28T05:31:24.529Z,1.76
2023-02-28T05:32:24.627Z,2.18
2023-02-28T05:33:24.554Z,2.07
2023-02-28T05:34:24.576Z,1.80
2023-02-28T05:35:24.623Z,1.68
2023-02-28T05:36:24.628Z,2.05
2023-02-28T05:37:24.646Z,2.14
2023-02-28T05:38:25.473Z,1.50
2023-02-28T05:39:24.794Z,1.68
2023-02-28T05:40:24.724Z,2.02
2023-02-28T05:41:24.754Z,1.76
2023-02-28T05:42:24.787Z,1.79
2023-02-28T05:43:25.466Z,1.72
2023-02-28T05:44:24.834Z,1.71
2023-02-28T05:45:24.864Z,1.41
2023-02-28T05:46:24.897Z,1.79
2023-02-28T05:47:25.003Z,2.01
2023-02-28T05:48:24.960Z,1.79
2023-02-28T05:49:24.974Z,1.78
2023-02-28T05:50:24.999Z,1.81
2023-02-28T05:51:25.026Z,1.67
2023-02-28T05:52:25.069Z,1.59
2023-02-28T05:53:25.148Z,1.57
2023-02-28T05:54:25.135Z,1.79
2023-02-28T05:55:25.163Z,1.83
2023-02-28T05:56:25.273Z,2.00
2023-02-28T05:57:25.236Z,1.90
2023-02-28T05:58:25.277Z,1.87
2023-02-28T05:59:25.309Z,1.72
2023-02-28T06:00:25.342Z,1.81
2023-02-28T06:01:25.376Z,1.97
2023-02-28T06:02:25.414Z,1.79
2023-02-28T06:03:25.467Z,1.90
2023-02-28T06:04:31.880Z,1.84
2023-02-28T06:05:26.470Z,1.73
2023-02-28T06:06:25.455Z,2.00
2023-02-28T06:07:25.440Z,2.05
2023-02-28T06:08:25.442Z,2.04
2023-02-28T06:09:25.442Z,2.14
2023-02-28T06:10:25.425Z,2.10
2023-02-28T06:11:25.430Z,1.97
2023-02-28T06:12:25.410Z,1.54
2023-02-28T06:13:25.411Z,1.55
2023-02-28T06:14:25.390Z,1.90
2023-02-28T06:15:25.391Z,2.11
2023-02-28T06:16:25.473Z,1.59
2023-02-28T06:17:25.378Z,1.90
2023-02-28T06:18:25.374Z,1.71
2023-02-28T06:19:25.423Z,2.01
2023-02-28T06:20:25.435Z,1.76
2023-02-28T06:21:25.470Z,1.68
2023-02-28T06:22:25.510Z,1.73
2023-02-28T06:23:25.564Z,1.73
2023-02-28T06:24:25.600Z,1.80
2023-02-28T06:25:25.648Z,1.71
2023-02-28T06:26:25.692Z,1.78
2023-02-28T06:27:25.718Z,1.83
2023-02-28T06:28:25.751Z,1.76
2023-02-28T06:29:25.791Z,1.61
2023-02-28T06:30:25.837Z,1.82
2023-02-28T06:31:25.896Z,1.72
2023-02-28T06:32:25.953Z,1.45
2023-02-28T06:33:25.911Z,1.98
2023-02-28T06:34:25.952Z,1.88
2023-02-28T06:35:26.003Z,2.10
2023-02-28T06:36:26.013Z,1.87
2023-02-28T06:37:26.032Z,2.33
2023-02-28T06:38:26.058Z,1.67
2023-02-28T06:39:26.124Z,2.13
2023-02-28T06:40:26.128Z,2.15
2023-02-28T06:41:26.168Z,2.08
2023-02-28T06:42:26.175Z,2.56
2023-02-28T06:43:26.198Z,1.87
2023-02-28T06:44:26.239Z,1.91
2023-02-28T06:45:26.264Z,2.22
2023-02-28T06:46:26.363Z,2.46
2023-02-28T06:47:26.320Z,2.53
2023-02-28T06:48:26.353Z,2.11
2023-02-28T06:49:26.390Z,2.31
2023-02-28T06:50:26.419Z,2.34
2023-02-28T06:51:26.438Z,2.47
2023-02-28T06:52:26.484Z,2.13
2023-02-28T06:53:26.495Z,2.27
2023-02-28T06:54:26.528Z,2.20
2023-02-28T06:55:26.565Z,2.56
2023-02-28T06:56:26.595Z,2.17
2023-02-28T06:57:26.612Z,2.12
2023-02-28T06:58:26.632Z,2.30
2023-02-28T06:59:26.658Z,2.38
2023-02-28T07:00:26.697Z,2.13
2023-02-28T07:01:26.864Z,2.04
2023-02-28T07:02:27.712Z,2.55
2023-02-28T07:03:26.737Z,2.18
2023-02-28T07:04:26.712Z,2.44
2023-02-28T07:05:26.686Z,2.02
2023-02-28T07:06:26.679Z,2.17
2023-02-28T07:07:27.503Z,2.15
2023-02-28T07:08:26.666Z,2.09
2023-02-28T07:09:26.654Z,2.27
2023-02-28T07:10:26.645Z,2.00
2023-02-28T07:11:26.984Z,2.47
2023-02-28T07:12:27.587Z,2.05
2023-02-28T07:13:26.628Z,2.01
2023-02-28T07:14:26.614Z,2.46
2023-02-28T07:15:26.619Z,2.47
2023-02-28T07:16:26.722Z,2.16
2023-02-28T07:17:26.599Z,2.23
2023-02-28T07:18:26.604Z,2.80
2023-02-28T07:19:26.611Z,2.52
2023-02-28T07:20:26.630Z,1.99
2023-02-28T07:21:26.670Z,2.31
2023-02-28T07:22:26.715Z,2.09
2023-02-28T07:23:26.694Z,1.90
2023-02-28T07:24:26.714Z,2.08
2023-02-28T07:25:26.720Z,1.92
2023-02-28T07:26:26.790Z,2.21
2023-02-28T07:27:26.831Z,2.14
2023-02-28T07:28:26.793Z,2.38
2023-02-28T07:29:26.823Z,2.32
2023-02-28T07:30:26.844Z,2.10
2023-02-28T07:31:27.090Z,2.06
2023-02-28T07:32:26.938Z,2.07
2023-02-28T07:33:26.899Z,2.33
2023-02-28T07:34:26.923Z,2.49
2023-02-28T07:35:26.985Z,2.35
2023-02-28T07:36:26.966Z,2.34
2023-02-28T07:37:26.976Z,2.23
2023-02-28T07:38:27.004Z,2.53
2023-02-28T07:39:27.015Z,2.24
2023-02-28T07:40:27.029Z,2.33
2023-02-28T07:41:27.380Z,2.22
2023-02-28T07:42:27.071Z,2.06
2023-02-28T07:43:27.107Z,2.28
2023-02-28T07:44:27.119Z,2.27
2023-02-28T07:45:27.140Z,2.61
2023-02-28T07:46:30.217Z,2.18
2023-02-28T07:47:27.170Z,2.48
2023-02-28T07:48:27.165Z,2.33
2023-02-28T07:49:27.534Z,2.40
2023-02-28T07:50:27.274Z,2.13
2023-02-28T07:51:27.319Z,2.56
2023-02-28T07:52:27.128Z,2.90
2023-02-28T07:53:27.139Z,2.24
2023-02-28T07:54:27.123Z,2.51
2023-02-28T07:55:27.178Z,2.55
2023-02-28T07:56:27.582Z,2.82
2023-02-28T07:57:27.106Z,2.35
2023-02-28T07:59:27.077Z,2.27
2023-02-28T08:00:27.201Z,2.16
2023-02-28T08:01:27.156Z,2.53
2023-02-28T08:02:27.063Z,2.20
2023-02-28T08:03:27.062Z,2.58
2023-02-28T08:04:27.049Z,2.63
2023-02-28T08:05:27.039Z,2.39
2023-02-28T08:06:27.027Z,2.49
2023-02-28T12:12:33.335Z,3.41
2023-02-28T12:15:33.636Z,2.58
2023-02-28T12:25:33.361Z,2.40
2023-02-28T12:26:33.410Z,2.49
2023-02-28T12:29:33.674Z,2.51
2023-02-28T12:40:34.329Z,2.40
2023-02-28T12:50:34.812Z,2.59
2023-02-28T12:59:35.239Z,2.57
2023-02-28T13:01:35.244Z,2.15
2023-02-28T13:17:35.208Z,2.53
2023-02-28T13:18:35.225Z,2.78
2023-02-28T13:19:35.230Z,2.59
2023-02-28T13:20:35.216Z,2.52
2023-02-28T13:21:35.222Z,2.72
2023-02-28T13:22:35.220Z,2.64
2023-02-28T13:23:35.222Z,2.41
2023-02-28T13:24:35.239Z,2.53
2023-02-28T13:25:35.237Z,3.45
2023-02-28T13:26:35.246Z,2.28
2023-02-28T13:27:35.256Z,2.57
2023-02-28T13:28:35.315Z,2.66
2023-02-28T15:03:37.635Z,2.10
2023-02-28T15:04:37.633Z,2.45
2023-02-28T15:05:37.646Z,2.10
2023-02-28T15:06:37.655Z,2.11
2023-02-28T15:07:37.647Z,2.44
2023-02-28T15:08:37.650Z,2.06
2023-02-28T15:09:37.662Z,1.85
2023-02-28T15:10:37.657Z,2.08
2023-02-28T15:11:37.658Z,2.13
2023-02-28T15:12:37.672Z,2.15
2023-02-28T15:13:37.658Z,2.48
2023-02-28T15:14:37.676Z,2.46
2023-02-28T15:15:40.841Z,2.30
2023-02-28T15:17:37.651Z,2.23
2023-02-28T15:18:37.640Z,2.19
2023-02-28T15:19:37.642Z,2.18
2023-02-28T15:20:37.627Z,1.59
2023-02-28T15:21:37.628Z,2.00
2023-02-28T15:22:37.609Z,1.73
2023-02-28T15:23:37.609Z,1.99
2023-02-28T15:24:37.604Z,2.34
2023-02-28T15:25:37.598Z,1.75
2023-02-28T15:26:37.588Z,2.14
2023-02-28T15:27:37.654Z,2.33
2023-02-28T15:28:37.572Z,2.26
2023-02-28T15:29:38.199Z,2.10
2023-02-28T15:30:37.557Z,2.10
2023-02-28T15:31:55.424Z,1.93
2023-02-28T15:32:38.604Z,1.88
2023-02-28T15:33:37.535Z,1.94
2023-02-28T15:34:42.920Z,1.77
2023-02-28T15:35:38.530Z,1.91
2023-02-28T15:36:37.535Z,2.25
2023-02-28T15:37:37.553Z,1.95
2023-02-28T15:38:37.510Z,2.49
2023-02-28T15:39:37.501Z,2.02
2023-02-28T15:40:37.591Z,1.68
2023-02-28T15:41:37.487Z,2.30
2023-02-28T15:42:37.474Z,2.18
2023-02-28T15:44:38.186Z,2.20
2023-02-28T15:45:37.481Z,1.80
2023-02-28T15:46:37.458Z,2.23
2023-02-28T15:47:37.443Z,2.26
2023-02-28T15:48:37.448Z,2.13
2023-02-28T15:49:44.652Z,1.95
2023-02-28T15:50:38.432Z,1.73
2023-02-28T15:51:37.431Z,2.06
2023-02-28T15:52:37.436Z,2.16
2023-02-28T15:53:37.408Z,1.98
2023-02-28T16:09:37.368Z,2.16
2023-02-28T16:10:37.281Z,2.06
2023-02-28T16:11:37.309Z,1.93
2023-02-28T16:12:37.363Z,1.82
2023-02-28T16:13:37.360Z,2.48
2023-02-28T16:14:37.381Z,1.93
2023-02-28T16:15:37.411Z,2.27
2023-02-28T16:16:37.459Z,1.98
2023-02-28T16:17:37.462Z,2.03
2023-02-28T16:18:37.479Z,1.87
2023-02-28T16:19:37.509Z,1.90
2023-02-28T16:20:37.545Z,2.08
2023-02-28T16:21:37.569Z,2.30
2023-02-28T16:22:37.601Z,2.36
2023-02-28T16:23:37.619Z,2.21
2023-02-28T16:24:37.643Z,2.02
2023-02-28T16:25:37.672Z,2.14
2023-02-28T16:26:37.705Z,2.22
2023-02-28T16:27:37.739Z,2.08
2023-02-28T16:28:37.761Z,1.86
2023-02-28T16:29:37.802Z,2.07
2023-02-28T16:30:37.854Z,2.33
2023-02-28T16:31:37.849Z,1.90
2023-02-28T16:32:37.946Z,2.26
2023-02-28T16:33:37.895Z,2.17
2023-02-28T16:34:37.946Z,1.82
2023-02-28T16:35:37.973Z,2.27
2023-02-28T16:36:37.992Z,1.94
2023-02-28T16:37:38.722Z,1.95
2023-02-28T16:38:38.222Z,1.81
2023-02-28T16:39:38.078Z,1.59
2023-02-28T16:40:38.109Z,2.53
2023-02-28T16:41:38.146Z,2.42
2023-02-28T16:42:38.174Z,2.39
2023-02-28T16:43:38.203Z,2.23
2023-02-28T16:44:38.235Z,2.32
2023-02-28T16:45:38.373Z,2.32
2023-02-28T16:46:39.225Z,2.30
2023-02-28T16:47:38.338Z,2.20
2023-02-28T16:48:38.371Z,2.38
2023-02-28T16:49:38.400Z,2.50
2023-02-28T16:50:38.442Z,2.09
2023-02-28T16:51:38.471Z,2.45
2023-02-28T16:52:38.516Z,2.04
2023-02-28T16:53:38.547Z,2.12
2023-02-28T16:54:38.582Z,2.20
2023-02-28T16:55:38.619Z,2.17
2023-02-28T16:56:38.656Z,2.11
2023-02-28T16:57:38.691Z,1.93
2023-02-28T16:58:38.799Z,1.75
2023-02-28T16:59:38.774Z,2.38
2023-02-28T17:00:38.797Z,2.08
2023-02-28T17:01:39.033Z,2.57
2023-02-28T17:02:41.297Z,2.10
2023-02-28T17:03:38.950Z,1.80
2023-02-28T17:04:38.860Z,2.39
2023-02-28T17:05:38.860Z,2.39
2023-02-28T17:06:38.852Z,2.37
2023-02-28T17:07:38.844Z,2.52
2023-02-28T17:08:38.844Z,2.12
2023-02-28T17:09:43.088Z,1.84
2023-02-28T17:10:39.822Z,2.01
2023-02-28T17:11:38.821Z,2.09
2023-02-28T17:12:38.891Z,2.12
2023-02-28T17:13:38.805Z,2.48
2023-02-28T17:14:38.786Z,2.37
2023-02-28T17:15:38.964Z,2.33
2023-02-28T17:16:38.833Z,2.01
2023-02-28T17:17:38.777Z,2.10
2023-02-28T17:18:39.240Z,1.79
2023-02-28T17:19:38.767Z,2.32
2023-02-28T17:20:38.747Z,2.22
2023-02-28T17:21:39.731Z,2.03
2023-02-28T17:22:38.895Z,2.26
2023-02-28T17:23:38.876Z,2.43
2023-02-28T17:24:38.904Z,1.89
2023-02-28T17:25:38.948Z,2.83
2023-02-28T17:26:38.978Z,2.49
2023-02-28T17:27:39.035Z,2.64
2023-02-28T17:28:39.068Z,2.35
2023-02-28T17:29:39.099Z,2.52
2023-02-28T17:30:39.143Z,2.15
2023-02-28T17:31:40.290Z,2.25
2023-02-28T17:32:39.259Z,2.53
2023-02-28T17:33:39.744Z,2.23
2023-02-28T17:34:39.308Z,2.80
2023-02-28T17:35:39.386Z,1.82
2023-02-28T17:36:39.393Z,2.47
2023-02-28T17:37:39.545Z,1.91
2023-02-28T17:38:39.484Z,2.13
2023-02-28T17:39:39.532Z,2.12
2023-02-28T17:40:39.568Z,2.61
2023-02-28T17:41:39.608Z,2.07
2023-02-28T17:42:39.702Z,2.71
2023-02-28T17:43:39.704Z,1.96
2023-02-28T17:44:39.734Z,1.83
2023-02-28T17:45:39.789Z,2.41
2023-02-28T17:46:39.883Z,2.15
2023-02-28T17:47:39.865Z,2.18
2023-02-28T17:48:39.908Z,2.69
2023-02-28T17:49:39.972Z,2.05
2023-02-28T17:51:40.038Z,2.22
2023-02-28T17:52:40.075Z,2.30
2023-02-28T17:53:40.124Z,2.33
2023-02-28T17:54:40.146Z,2.04
2023-02-28T17:55:40.190Z,2.54
2023-02-28T17:56:40.753Z,2.43
2023-02-28T17:57:40.279Z,2.50
2023-02-28T17:58:40.333Z,2.22
2023-02-28T17:59:40.360Z,2.06
2023-02-28T18:00:40.404Z,2.05
2023-02-28T18:01:40.526Z,2.18
2023-02-28T18:02:40.526Z,2.16
2023-02-28T18:03:40.532Z,2.19
2023-02-28T18:04:40.584Z,2.26
2023-02-28T18:05:40.611Z,2.54
2023-02-28T18:06:40.669Z,2.03
2023-02-28T18:07:40.720Z,2.20
2023-02-28T18:08:40.799Z,1.99
2023-02-28T18:09:40.808Z,2.00
2023-02-28T18:10:40.843Z,2.25
2023-02-28T18:11:40.888Z,2.08
2023-02-28T18:12:40.926Z,1.95
2023-02-28T18:13:40.979Z,2.28
2023-02-28T18:14:41.036Z,2.08
2023-02-28T18:15:41.061Z,2.21
2023-02-28T18:16:41.189Z,2.18
2023-02-28T18:17:41.162Z,2.29
2023-02-28T18:18:41.759Z,2.32
2023-02-28T18:19:41.774Z,2.09
2023-02-28T18:20:41.288Z,2.51
2023-02-28T18:21:41.336Z,2.61
2023-02-28T18:22:41.391Z,2.24
2023-02-28T18:23:41.637Z,2.11
2023-02-28T18:24:42.230Z,2.58
2023-02-28T18:25:41.553Z,2.26
2023-02-28T18:59:43.412Z,2.29
2023-02-28T19:00:43.406Z,2.25
2023-02-28T19:01:43.445Z,2.56
2023-02-28T19:02:43.498Z,2.19
2023-02-28T19:03:43.605Z,2.42
2023-02-28T19:04:43.662Z,2.32
2023-02-28T19:05:43.653Z,2.54
2023-02-28T19:06:43.710Z,2.37
2023-02-28T19:07:43.758Z,2.30
2023-02-28T19:08:43.828Z,2.20
2023-02-28T19:09:43.877Z,2.47
2023-02-28T19:10:43.950Z,2.46
2023-02-28T19:11:44.008Z,2.34
2023-02-28T19:12:44.053Z,2.37
2023-02-28T19:13:44.128Z,2.07
2023-02-28T19:14:44.170Z,2.33
2023-02-28T19:15:44.230Z,2.72
2023-02-28T19:16:44.321Z,2.50
2023-02-28T19:17:44.359Z,2.61
2023-02-28T19:18:44.405Z,2.03
2023-02-28T19:19:44.487Z,2.10
2023-02-28T19:20:44.524Z,2.51
2023-02-28T19:21:44.586Z,2.12
2023-02-28T19:22:44.700Z,2.32
2023-02-28T19:23:44.695Z,1.99
2023-02-28T19:24:44.741Z,2.65
2023-02-28T19:25:44.803Z,2.57
2023-02-28T19:26:44.859Z,2.36
2023-02-28T19:27:44.910Z,2.64
2023-02-28T19:28:44.973Z,2.19
2023-02-28T19:29:45.025Z,2.60
2023-02-28T19:30:45.092Z,2.34
2023-02-28T19:31:45.196Z,2.16
2023-02-28T19:32:45.249Z,2.56
2023-02-28T19:33:45.340Z,2.21
2023-02-28T19:34:45.331Z,2.56
2023-02-28T19:35:45.410Z,2.31
2023-02-28T19:36:45.450Z,2.41
2023-02-28T19:37:45.527Z,2.25
2023-02-28T19:38:45.573Z,2.37
2023-02-28T19:39:45.639Z,2.28
2023-02-28T19:40:45.669Z,2.32
2023-02-28T19:41:45.740Z,2.54
2023-02-28T19:42:45.804Z,2.50
2023-02-28T19:43:45.877Z,2.35
2023-02-28T19:44:45.946Z,2.47
2023-02-28T19:45:46.022Z,2.84
2023-02-28T19:46:46.097Z,2.31
2023-02-28T19:47:46.109Z,2.25
2023-02-28T19:48:46.263Z,2.36
2023-02-28T19:49:46.218Z,2.12
2023-02-28T19:50:46.286Z,2.09
2023-02-28T19:51:46.335Z,2.64
2023-02-28T19:52:46.417Z,2.36
2023-02-28T19:53:46.478Z,2.28
2023-02-28T19:54:46.538Z,2.77
2023-02-28T19:55:46.611Z,2.80
2023-02-28T19:56:46.640Z,2.19
2023-02-28T19:57:46.720Z,2.56
2023-02-28T19:58:46.781Z,2.11
2023-02-28T19:59:46.831Z,2.42
2023-02-28T20:00:46.913Z,1.94
2023-02-28T20:01:46.957Z,2.33
2023-02-28T20:02:47.021Z,2.66
2023-02-28T20:03:47.137Z,2.84
2023-02-28T20:04:47.182Z,2.80
2023-02-28T20:05:47.218Z,2.08
2023-02-28T20:06:47.267Z,2.68
2023-02-28T20:07:47.333Z,2.54
2023-02-28T20:08:47.391Z,2.43
2023-02-28T20:09:48.290Z,2.32
2023-02-28T20:10:47.496Z,2.49
2023-02-28T20:11:47.552Z,2.42
2023-02-28T20:12:48.299Z,2.50
2023-02-28T20:13:47.683Z,2.30
2023-02-28T20:14:47.757Z,2.63
2023-02-28T20:15:47.829Z,2.64
2023-02-28T21:37:53.345Z,2.54
2023-02-28T21:41:53.343Z,2.60
2023-02-28T21:48:53.830Z,2.99
2023-02-28T21:49:53.355Z,2.91
2023-02-28T21:50:53.417Z,3.12
2023-02-28T21:51:53.546Z,2.94
2023-02-28T21:52:53.558Z,2.71
2023-02-28T21:53:53.594Z,3.22
2023-02-28T21:54:53.672Z,2.95
2023-02-28T21:55:53.773Z,2.91
2023-02-28T21:56:53.766Z,2.79
2023-02-28T21:57:53.822Z,2.60
2023-02-28T21:58:53.880Z,2.57
2023-02-28T21:59:53.950Z,2.60
2023-02-28T22:00:53.985Z,2.74
2023-02-28T22:01:54.070Z,2.68
2023-02-28T22:02:54.107Z,3.10
2023-02-28T22:03:54.149Z,3.20
2023-02-28T22:04:54.171Z,3.22
2023-02-28T22:05:54.207Z,3.25
2023-02-28T22:06:54.224Z,3.03
2023-02-28T22:07:54.325Z,2.74
2023-02-28T22:08:55.288Z,2.96
2023-02-28T22:09:54.344Z,2.59
2023-02-28T22:10:54.404Z,2.79
2023-02-28T22:11:54.456Z,3.18
2023-02-28T22:12:54.499Z,3.08
2023-02-28T22:13:54.543Z,2.53
2023-02-28T22:14:54.542Z,2.67
2023-02-28T22:15:54.591Z,3.02
2023-02-28T22:16:55.662Z,3.35
2023-02-28T22:17:54.850Z,2.92
2023-02-28T22:18:54.627Z,3.35
2023-02-28T22:19:54.632Z,3.12
2023-02-28T22:20:54.660Z,3.00
2023-02-28T22:21:54.730Z,2.90
2023-02-28T22:22:54.726Z,2.93
2023-02-28T22:23:54.744Z,2.88
2023-02-28T22:24:54.763Z,2.58
2023-02-28T22:25:54.780Z,3.63
2023-02-28T22:26:54.809Z,2.87
2023-02-28T22:27:54.807Z,3.11
2023-02-28T22:28:54.827Z,3.05
2023-02-28T22:29:54.844Z,2.75
2023-02-28T22:30:54.865Z,3.09
2023-02-28T22:31:54.919Z,3.02
2023-02-28T22:32:54.917Z,2.89
2023-02-28T22:33:54.924Z,3.14
2023-02-28T22:34:54.957Z,3.22
2023-02-28T22:35:55.119Z,2.60
2023-02-28T22:36:55.086Z,2.91
2023-02-28T22:37:55.104Z,3.03
2023-02-28T22:38:55.143Z,2.55
2023-02-28T22:39:55.184Z,2.99
2023-02-28T22:40:55.234Z,2.76
2023-02-28T22:41:55.290Z,3.03
2023-02-28T22:42:55.344Z,3.05
2023-02-28T22:43:55.382Z,2.65
2023-02-28T22:44:55.444Z,2.76
2023-02-28T22:45:56.346Z,2.83
2023-02-28T22:46:55.644Z,3.01
2023-02-28T22:47:55.594Z,3.08
2023-02-28T22:48:55.858Z,3.08
2023-02-28T22:49:55.680Z,2.94
2023-02-28T22:50:55.709Z,3.24
2023-02-28T22:51:55.830Z,3.02
2023-02-28T22:52:55.785Z,3.14
2023-02-28T22:53:55.832Z,3.16
2023-02-28T22:54:55.850Z,3.21
2023-02-28T22:55:55.881Z,2.72
2023-02-28T22:56:55.915Z,3.30
2023-02-28T22:57:55.954Z,2.52
2023-02-28T22:58:56.001Z,2.92
2023-02-28T22:59:56.017Z,2.91
2023-02-28T23:00:56.081Z,2.80
2023-02-28T23:01:56.071Z,2.79
2023-02-28T23:02:56.112Z,2.76
2023-02-28T23:03:56.214Z,3.10
2023-02-28T23:04:56.189Z,2.86
2023-02-28T23:05:56.216Z,2.94
2023-02-28T23:06:56.274Z,2.99
2023-02-28T23:07:56.277Z,3.20
2023-02-28T23:08:56.311Z,2.68
2023-02-28T23:09:56.358Z,2.79
2023-02-28T23:10:56.474Z,2.96
2023-02-28T23:11:56.453Z,2.97
2023-02-28T23:12:56.515Z,2.45
2023-02-28T23:13:56.533Z,3.16
2023-02-28T23:14:56.554Z,3.28
2023-02-28T23:15:56.580Z,2.93
2023-02-28T23:16:56.766Z,2.98
2023-02-28T23:17:56.643Z,3.42
2023-02-28T23:18:56.686Z,2.73
2023-02-28T23:40:57.763Z,2.82
2023-02-28T23:41:57.803Z,3.15
2023-02-28T23:42:57.851Z,3.23
2023-02-28T23:43:57.916Z,3.12
2023-02-28T23:44:57.945Z,3.62
2023-02-28T23:45:58.029Z,3.09
2023-02-28T23:46:58.068Z,2.91
2023-02-28T23:47:58.124Z,3.28
2023-02-28T23:48:58.175Z,3.55
2023-02-28T23:49:58.216Z,3.30
2023-02-28T23:50:58.261Z,3.15
2023-02-28T23:51:58.291Z,3.27
2023-02-28T23:52:58.346Z,3.08
2023-02-28T23:53:59.374Z,3.02
2023-02-28T23:54:58.438Z,3.25
2023-02-28T23:55:58.486Z,3.36
2023-02-28T23:56:58.609Z,2.78
2023-02-28T23:57:58.601Z,3.48
2023-02-28T23:58:58.655Z,3.32
2023-02-28T23:59:58.714Z,3.34
